createdAt,value
2023-07-31T00:00:07.280Z,20.92
2023-07-31T00:02:34.243Z,20.92
2023-07-31T00:05:01.828Z,21.23
2023-07-31T00:07:28.808Z,21.15
2023-07-31T00:09:57.761Z,20.92
2023-07-31T00:12:24.843Z,20.77
2023-07-31T00:14:51.894Z,20.86
2023-07-31T00:17:19.237Z,20.88
2023-07-31T00:19:47.486Z,20.77
2023-07-31T00:22:14.412Z,20.69
2023-07-31T00:24:41.403Z,20.80
2023-07-31T00:27:08.403Z,20.60
2023-07-31T00:29:35.415Z,20.56
2023-07-31T00:32:02.292Z,20.73
2023-07-31T00:34:29.247Z,20.87
2023-07-31T00:36:56.599Z,20.89
2023-07-31T00:39:23.604Z,20.74
2023-07-31T00:41:50.623Z,20.59
2023-07-31T00:44:18.277Z,20.50
2023-07-31T00:46:45.568Z,20.39
2023-07-31T00:49:13.233Z,20.24
2023-07-31T00:51:40.346Z,20.10
2023-07-31T00:54:08.155Z,20.27
2023-07-31T00:56:35.397Z,20.25
2023-07-31T00:59:02.467Z,20.10
2023-07-31T01:01:29.441Z,20.15
2023-07-31T01:04:03.004Z,20.17
2023-07-31T01:06:41.644Z,20.02
2023-07-31T01:09:50.791Z,20.09
2023-07-31T01:12:18.756Z,19.99
2023-07-31T01:15:12.396Z,19.99
2023-07-31T01:17:40.316Z,20.03
2023-07-31T01:20:29.858Z,20.02
2023-07-31T01:23:49.977Z,20.00
2023-07-31T01:26:29.133Z,19.86
2023-07-31T01:29:11.525Z,19.78
2023-07-31T01:31:40.916Z,19.81
2023-07-31T01:34:10.158Z,19.70
2023-07-31T01:36:37.552Z,19.90
2023-07-31T01:39:05.232Z,19.89
2023-07-31T01:41:32.214Z,19.74
2023-07-31T01:43:59.169Z,19.83
2023-07-31T01:46:26.143Z,19.97
2023-07-31T01:48:53.144Z,19.91
2023-07-31T01:51:20.264Z,19.92
2023-07-31T01:53:47.234Z,19.84
2023-07-31T01:56:14.259Z,19.90
2023-07-31T01:58:41.247Z,19.97
2023-07-31T02:01:08.271Z,19.95
2023-07-31T02:03:35.386Z,20.01
2023-07-31T02:06:02.576Z,20.15
2023-07-31T02:08:29.514Z,20.06
2023-07-31T02:10:56.456Z,20.00
2023-07-31T02:13:23.833Z,19.98
2023-07-31T02:15:51.856Z,20.04
2023-07-31T02:18:18.982Z,20.03
2023-07-31T02:20:53.044Z,20.16
2023-07-31T02:23:21.007Z,20.00
2023-07-31T02:25:48.129Z,19.98
2023-07-31T02:28:15.750Z,20.09
2023-07-31T02:30:46.150Z,20.13
2023-07-31T02:33:13.191Z,20.24
2023-07-31T02:35:40.206Z,20.27
2023-07-31T02:38:07.148Z,20.29
2023-07-31T02:40:34.083Z,20.36
2023-07-31T02:43:01.123Z,20.26
2023-07-31T02:45:28.062Z,20.30
2023-07-31T02:47:55.089Z,20.32
2023-07-31T02:50:22.113Z,20.42
2023-07-31T02:52:49.169Z,20.38
2023-07-31T02:55:16.384Z,20.29
2023-07-31T02:57:43.352Z,20.35
2023-07-31T03:00:10.813Z,20.29
2023-07-31T03:02:37.910Z,20.43
2023-07-31T03:05:05.288Z,20.42
2023-07-31T03:07:32.285Z,20.47
2023-07-31T03:09:59.221Z,20.50
2023-07-31T03:12:26.200Z,20.47
2023-07-31T03:14:53.213Z,20.52
2023-07-31T03:17:20.138Z,20.51
2023-07-31T03:19:47.201Z,20.48
2023-07-31T03:22:14.261Z,20.44
2023-07-31T03:24:41.182Z,20.60
2023-07-31T03:27:08.325Z,20.42
2023-07-31T03:29:35.237Z,20.46
2023-07-31T03:32:02.321Z,20.45
2023-07-31T03:34:29.254Z,20.57
2023-07-31T03:36:56.207Z,20.75
2023-07-31T03:39:23.168Z,20.61
2023-07-31T03:41:51.241Z,20.70
2023-07-31T03:44:18.505Z,20.77
2023-07-31T03:46:46.249Z,20.67
2023-07-31T03:49:13.298Z,20.54
2023-07-31T03:51:40.334Z,20.67
2023-07-31T03:54:08.913Z,20.77
2023-07-31T03:56:36.536Z,20.68
2023-07-31T03:59:03.593Z,20.58
2023-07-31T04:01:30.696Z,20.51
2023-07-31T04:03:57.702Z,20.53
2023-07-31T04:06:24.987Z,20.64
2023-07-31T04:08:51.941Z,20.83
2023-07-31T04:11:19.049Z,20.77
2023-07-31T04:13:46.068Z,20.72
2023-07-31T04:16:13.087Z,20.65
2023-07-31T04:18:40.177Z,20.61
2023-07-31T04:21:07.080Z,20.69
2023-07-31T04:23:34.070Z,20.67
2023-07-31T04:26:01.080Z,20.80
2023-07-31T04:28:28.181Z,21.04
2023-07-31T04:30:55.203Z,20.88
2023-07-31T04:33:22.256Z,20.89
2023-07-31T04:35:55.486Z,20.98
2023-07-31T04:38:23.068Z,21.00
2023-07-31T04:40:50.323Z,21.12
2023-07-31T04:43:17.290Z,21.07
2023-07-31T04:45:48.904Z,21.05
2023-07-31T04:48:16.259Z,21.14
2023-07-31T04:50:43.487Z,21.23
2023-07-31T04:53:10.492Z,21.11
2023-07-31T04:55:37.480Z,21.05
2023-07-31T04:58:04.681Z,21.19
2023-07-31T05:00:31.817Z,21.21
2023-07-31T05:02:59.062Z,21.26
2023-07-31T05:05:26.234Z,21.28
2023-07-31T05:07:54.101Z,21.34
2023-07-31T05:10:21.300Z,21.21
2023-07-31T05:12:48.388Z,21.04
2023-07-31T05:15:15.457Z,20.99
2023-07-31T05:17:43.970Z,20.96
2023-07-31T05:20:11.915Z,21.08
2023-07-31T05:22:39.157Z,21.12
2023-07-31T05:25:09.524Z,21.22
2023-07-31T05:27:36.682Z,21.23
2023-07-31T05:30:04.210Z,21.36
2023-07-31T05:32:31.463Z,21.44
2023-07-31T05:34:58.834Z,21.48
2023-07-31T05:37:25.821Z,21.55
2023-07-31T05:39:57.242Z,21.54
2023-07-31T05:42:24.461Z,21.55
2023-07-31T05:44:51.551Z,21.74
2023-07-31T05:47:18.542Z,21.78
2023-07-31T05:49:45.703Z,21.91
2023-07-31T05:52:13.063Z,21.90
2023-07-31T05:54:40.134Z,21.90
2023-07-31T05:57:07.780Z,21.78
2023-07-31T05:59:35.022Z,21.75
2023-07-31T06:02:02.106Z,21.83
2023-07-31T06:04:29.480Z,21.95
2023-07-31T06:06:57.728Z,22.05
2023-07-31T06:09:25.024Z,22.10
2023-07-31T06:11:52.289Z,22.08
2023-07-31T06:14:19.223Z,22.05
2023-07-31T06:16:48.964Z,22.04
2023-07-31T06:19:16.380Z,22.00
2023-07-31T06:21:45.235Z,22.06
2023-07-31T06:24:15.735Z,22.11
2023-07-31T06:26:43.079Z,22.19
2023-07-31T06:29:11.470Z,22.04
2023-07-31T06:31:38.631Z,22.11
2023-07-31T06:36:33.185Z,21.91
2023-07-31T06:39:00.311Z,22.04
2023-07-31T06:41:27.256Z,21.95
2023-07-31T06:43:54.608Z,21.85
2023-07-31T06:46:21.668Z,21.82
2023-07-31T06:48:48.716Z,21.96
2023-07-31T06:51:15.707Z,21.99
2023-07-31T06:53:42.842Z,21.95
2023-07-31T06:56:09.807Z,21.97
2023-07-31T06:58:38.198Z,22.13
2023-07-31T07:01:05.372Z,22.32
2023-07-31T07:03:32.540Z,22.48
2023-07-31T07:05:59.501Z,22.49
2023-07-31T07:08:27.640Z,22.52
2023-07-31T07:10:55.251Z,22.53
2023-07-31T07:13:23.056Z,22.60
2023-07-31T07:15:50.817Z,22.36
2023-07-31T07:18:18.404Z,22.42
2023-07-31T07:20:52.700Z,22.67
2023-07-31T07:23:22.056Z,22.77
2023-07-31T07:25:49.193Z,22.70
2023-07-31T07:28:17.613Z,22.54
2023-07-31T07:30:44.817Z,22.66
2023-07-31T07:33:12.930Z,22.84
2023-07-31T07:35:40.043Z,22.83
2023-07-31T07:38:07.218Z,22.98
2023-07-31T07:40:34.289Z,23.09
2023-07-31T07:43:01.647Z,22.95
2023-07-31T07:45:28.944Z,22.82
2023-07-31T07:47:56.039Z,22.88
2023-07-31T07:50:23.248Z,23.15
2023-07-31T07:52:50.682Z,23.25
2023-07-31T07:55:17.915Z,23.23
2023-07-31T07:57:46.555Z,23.29
2023-07-31T08:00:14.672Z,23.32
2023-07-31T08:02:41.816Z,23.49
2023-07-31T08:05:09.852Z,23.38
2023-07-31T08:07:36.877Z,23.52
2023-07-31T08:10:04.401Z,23.67
2023-07-31T08:12:31.769Z,23.88
2023-07-31T08:14:58.784Z,24.16
2023-07-31T08:17:25.842Z,24.06
2023-07-31T08:19:53.083Z,23.97
2023-07-31T08:22:20.213Z,24.09
2023-07-31T08:24:48.439Z,24.51
2023-07-31T08:27:15.350Z,24.63
2023-07-31T08:29:42.556Z,24.72
2023-07-31T08:32:09.541Z,24.83
2023-07-31T08:34:36.832Z,24.86
2023-07-31T08:37:04.122Z,24.90
2023-07-31T08:39:31.661Z,24.85
2023-07-31T08:42:01.232Z,24.75
2023-07-31T08:44:28.977Z,24.67
2023-07-31T08:46:56.676Z,25.02
2023-07-31T08:49:24.713Z,25.15
2023-07-31T08:51:57.131Z,25.33
2023-07-31T08:54:24.201Z,25.46
2023-07-31T08:56:54.314Z,25.46
2023-07-31T08:59:23.512Z,25.67
2023-07-31T09:01:53.316Z,25.78
2023-07-31T09:04:24.202Z,25.63
2023-07-31T09:06:58.238Z,25.54
2023-07-31T09:09:25.524Z,25.87
2023-07-31T09:11:53.429Z,25.72
2023-07-31T09:14:21.004Z,25.90
2023-07-31T09:16:59.904Z,25.99
2023-07-31T09:19:40.595Z,26.31
2023-07-31T09:22:07.896Z,26.59
2023-07-31T09:24:35.777Z,26.54
2023-07-31T09:27:03.777Z,26.73
2023-07-31T09:29:31.322Z,27.07
2023-07-31T09:31:59.590Z,27.08
2023-07-31T09:34:41.878Z,26.95
2023-07-31T09:37:09.588Z,26.80
2023-07-31T09:39:48.269Z,26.77
2023-07-31T09:42:15.750Z,26.75
2023-07-31T09:44:43.519Z,26.88
2023-07-31T09:47:34.962Z,27.23
2023-07-31T09:50:02.049Z,27.30
2023-07-31T09:52:29.024Z,27.23
2023-07-31T09:54:56.111Z,27.42
2023-07-31T09:57:24.213Z,27.52
2023-07-31T09:59:54.138Z,27.68
2023-07-31T10:02:24.673Z,27.54
2023-07-31T10:04:53.024Z,27.42
2023-07-31T10:07:24.759Z,27.37
2023-07-31T10:09:54.865Z,27.66
2023-07-31T10:12:24.460Z,27.65
2023-07-31T10:14:55.248Z,27.66
2023-07-31T10:17:27.429Z,27.57
2023-07-31T10:19:54.918Z,27.45
2023-07-31T10:22:22.671Z,27.43
2023-07-31T10:24:51.542Z,27.82
2023-07-31T10:27:18.678Z,28.11
2023-07-31T10:29:49.292Z,28.15
2023-07-31T10:32:18.904Z,28.19
2023-07-31T10:34:47.332Z,28.00
2023-07-31T10:37:44.968Z,28.04
2023-07-31T10:40:18.595Z,28.19
2023-07-31T10:42:54.157Z,28.40
2023-07-31T10:45:34.036Z,28.51
2023-07-31T10:48:03.428Z,28.65
2023-07-31T10:50:34.306Z,28.75
2023-07-31T10:53:02.757Z,28.73
2023-07-31T10:55:49.535Z,28.96
2023-07-31T10:58:20.579Z,29.10
2023-07-31T11:00:48.408Z,29.17
2023-07-31T11:03:18.424Z,29.21
2023-07-31T11:06:07.127Z,29.18
2023-07-31T11:08:35.802Z,29.28
2023-07-31T11:11:08.469Z,29.55
2023-07-31T11:13:42.454Z,29.57
2023-07-31T11:16:10.703Z,29.79
2023-07-31T11:18:41.755Z,30.41
2023-07-31T11:21:09.843Z,30.33
2023-07-31T11:23:38.452Z,30.26
2023-07-31T11:26:07.215Z,29.82
2023-07-31T11:28:35.539Z,28.98
2023-07-31T11:31:06.014Z,28.64
2023-07-31T11:33:33.232Z,28.60
2023-07-31T11:36:00.278Z,28.90
2023-07-31T11:38:30.090Z,29.05
2023-07-31T11:40:58.922Z,29.01
2023-07-31T11:43:28.028Z,29.34
2023-07-31T11:46:05.545Z,29.40
2023-07-31T11:48:34.976Z,29.41
2023-07-31T11:51:06.896Z,29.74
2023-07-31T11:53:42.435Z,29.79
2023-07-31T11:56:12.725Z,29.44
2023-07-31T11:58:40.954Z,29.77
2023-07-31T12:01:08.781Z,29.72
2023-07-31T12:03:36.736Z,29.91
2023-07-31T12:06:04.255Z,30.43
2023-07-31T12:08:31.204Z,30.72
2023-07-31T12:11:05.444Z,30.34
2023-07-31T12:13:34.198Z,30.33
2023-07-31T12:16:04.605Z,30.54
2023-07-31T12:18:37.099Z,30.58
2023-07-31T12:21:07.114Z,30.38
2023-07-31T12:23:36.188Z,30.54
2023-07-31T12:26:25.974Z,30.84
2023-07-31T12:28:55.884Z,31.26
2023-07-31T12:31:23.894Z,30.95
2023-07-31T12:33:52.561Z,30.84
2023-07-31T12:36:24.752Z,30.40
2023-07-31T12:38:52.965Z,29.86
2023-07-31T12:41:20.757Z,29.45
2023-07-31T12:43:49.662Z,29.08
2023-07-31T12:46:18.332Z,28.90
2023-07-31T12:48:45.475Z,28.90
2023-07-31T12:51:12.777Z,29.42
2023-07-31T12:53:39.935Z,30.01
2023-07-31T12:56:07.083Z,29.99
2023-07-31T12:58:34.066Z,30.13
2023-07-31T13:01:01.139Z,30.05
2023-07-31T13:03:28.308Z,30.15
2023-07-31T13:05:55.931Z,30.36
2023-07-31T13:08:22.922Z,30.23
2023-07-31T13:10:50.032Z,30.01
2023-07-31T13:13:17.368Z,29.44
2023-07-31T13:15:45.346Z,29.10
2023-07-31T13:18:12.360Z,28.84
2023-07-31T13:20:39.372Z,28.77
2023-07-31T13:23:06.477Z,29.08
2023-07-31T13:25:33.482Z,29.76
2023-07-31T13:28:03.049Z,29.99
2023-07-31T13:30:30.827Z,30.45
2023-07-31T13:32:58.015Z,30.73
2023-07-31T13:35:25.040Z,30.99
2023-07-31T13:37:52.039Z,31.46
2023-07-31T13:40:19.202Z,31.98
2023-07-31T13:42:48.164Z,32.12
2023-07-31T13:45:15.236Z,31.71
2023-07-31T13:47:42.554Z,31.48
2023-07-31T13:50:10.529Z,31.83
2023-07-31T13:52:37.711Z,32.37
2023-07-31T13:55:05.058Z,32.13
2023-07-31T13:57:39.312Z,31.77
2023-07-31T14:00:09.998Z,31.36
2023-07-31T14:02:37.062Z,31.27
2023-07-31T14:05:04.403Z,31.23
2023-07-31T14:07:33.518Z,31.16
2023-07-31T14:10:00.781Z,31.27
2023-07-31T14:12:41.535Z,31.17
2023-07-31T14:15:09.725Z,30.91
2023-07-31T14:17:37.057Z,30.91
2023-07-31T14:20:05.238Z,31.04
2023-07-31T14:22:34.589Z,31.08
2023-07-31T14:25:02.253Z,31.23
2023-07-31T14:27:29.304Z,31.35
2023-07-31T14:29:56.365Z,31.87
2023-07-31T14:32:27.058Z,31.91
2023-07-31T14:34:54.202Z,32.10
2023-07-31T14:37:21.155Z,32.04
2023-07-31T14:39:48.181Z,32.16
2023-07-31T14:42:15.198Z,31.75
2023-07-31T14:44:42.116Z,31.97
2023-07-31T14:47:09.172Z,32.21
2023-07-31T14:49:36.674Z,32.06
2023-07-31T14:52:03.906Z,31.83
2023-07-31T14:54:30.978Z,31.94
2023-07-31T14:56:58.102Z,32.04
2023-07-31T14:59:25.081Z,32.32
2023-07-31T15:01:52.230Z,32.36
2023-07-31T15:04:19.243Z,32.54
2023-07-31T15:06:46.312Z,32.99
2023-07-31T15:09:13.265Z,33.01
2023-07-31T15:11:40.407Z,32.79
2023-07-31T15:14:07.613Z,32.28
2023-07-31T15:16:35.295Z,31.57
2023-07-31T15:19:02.443Z,30.67
2023-07-31T15:21:29.646Z,30.07
2023-07-31T15:23:57.166Z,29.63
2023-07-31T15:26:24.302Z,29.06
2023-07-31T15:28:57.776Z,28.79
2023-07-31T15:31:25.227Z,28.31
2023-07-31T15:33:52.481Z,28.10
2023-07-31T15:36:19.565Z,27.93
2023-07-31T15:38:47.498Z,27.63
2023-07-31T15:41:14.735Z,27.36
2023-07-31T15:43:41.849Z,27.30
2023-07-31T15:46:09.105Z,27.22
2023-07-31T15:48:36.164Z,27.22
2023-07-31T15:51:04.465Z,27.19
2023-07-31T15:53:32.324Z,27.19
2023-07-31T15:55:59.353Z,27.17
2023-07-31T15:58:26.524Z,27.48
2023-07-31T16:00:54.496Z,28.06
2023-07-31T16:03:22.869Z,28.35
2023-07-31T16:05:50.072Z,28.92
2023-07-31T16:08:17.332Z,29.52
2023-07-31T16:10:44.341Z,29.75
2023-07-31T16:13:11.471Z,29.88
2023-07-31T16:15:38.499Z,29.92
2023-07-31T16:18:05.779Z,30.24
2023-07-31T16:20:33.270Z,31.08
2023-07-31T16:23:00.308Z,32.05
2023-07-31T16:25:27.472Z,32.11
2023-07-31T16:27:54.627Z,32.32
2023-07-31T16:30:21.692Z,31.98
2023-07-31T16:32:50.950Z,32.06
2023-07-31T16:35:18.292Z,32.24
2023-07-31T16:37:47.781Z,32.44
2023-07-31T16:40:17.779Z,32.76
2023-07-31T16:42:45.070Z,32.83
2023-07-31T16:45:12.061Z,32.74
2023-07-31T16:47:39.091Z,33.31
2023-07-31T16:50:06.701Z,33.62
2023-07-31T16:52:33.769Z,33.92
2023-07-31T16:55:00.796Z,34.11
2023-07-31T16:57:27.832Z,33.85
2023-07-31T16:59:54.920Z,33.59
2023-07-31T17:02:22.065Z,33.55
2023-07-31T17:04:49.402Z,33.53
2023-07-31T17:07:17.211Z,33.45
2023-07-31T17:09:44.184Z,33.65
2023-07-31T17:12:12.203Z,33.33
2023-07-31T17:14:39.228Z,33.01
2023-07-31T17:17:07.780Z,32.43
2023-07-31T17:19:34.880Z,32.58
2023-07-31T17:22:01.957Z,32.27
2023-07-31T17:24:28.989Z,32.01
2023-07-31T17:26:56.067Z,31.46
2023-07-31T17:29:29.374Z,30.63
2023-07-31T17:31:56.510Z,29.97
2023-07-31T17:34:23.597Z,29.50
2023-07-31T17:36:50.809Z,29.24
2023-07-31T17:39:17.989Z,28.83
2023-07-31T17:41:44.982Z,28.51
2023-07-31T17:44:12.162Z,28.12
2023-07-31T17:46:39.397Z,27.77
2023-07-31T17:49:06.946Z,27.48
2023-07-31T17:51:34.984Z,27.23
2023-07-31T17:54:02.065Z,26.88
2023-07-31T17:56:29.833Z,26.76
2023-07-31T17:58:56.845Z,26.65
2023-07-31T18:01:24.134Z,26.59
2023-07-31T18:03:51.331Z,26.49
2023-07-31T18:06:18.281Z,26.48
2023-07-31T18:08:45.279Z,26.49
2023-07-31T18:11:12.385Z,26.46
2023-07-31T18:13:39.362Z,26.41
2023-07-31T18:16:06.331Z,26.34
2023-07-31T18:18:33.517Z,26.24
2023-07-31T18:21:00.600Z,26.16
2023-07-31T18:23:27.601Z,26.10
2023-07-31T18:25:54.535Z,25.99
2023-07-31T18:28:21.500Z,25.98
2023-07-31T18:30:48.554Z,25.70
2023-07-31T18:33:15.558Z,25.53
2023-07-31T18:35:42.529Z,25.44
2023-07-31T18:38:09.575Z,25.37
2023-07-31T18:40:36.532Z,25.34
2023-07-31T18:43:03.727Z,25.34
2023-07-31T18:45:30.793Z,25.33
2023-07-31T18:47:57.952Z,25.37
2023-07-31T18:50:25.057Z,25.36
2023-07-31T18:52:52.062Z,25.33
2023-07-31T18:55:19.124Z,25.29
2023-07-31T18:57:46.790Z,25.19
2023-07-31T19:00:14.120Z,25.13
2023-07-31T19:02:41.831Z,25.08
2023-07-31T19:05:09.483Z,25.00
2023-07-31T19:07:36.489Z,24.91
2023-07-31T19:10:14.211Z,24.84
2023-07-31T19:12:43.889Z,24.76
2023-07-31T19:15:11.671Z,24.70
2023-07-31T19:17:40.046Z,24.64
2023-07-31T19:20:08.087Z,24.54
2023-07-31T19:22:35.040Z,24.46
2023-07-31T19:25:02.160Z,24.39
2023-07-31T19:27:29.167Z,24.22
2023-07-31T19:29:56.305Z,24.13
2023-07-31T19:32:24.296Z,24.11
2023-07-31T19:34:51.468Z,24.08
2023-07-31T19:37:18.403Z,24.02
2023-07-31T19:39:45.345Z,23.94
2023-07-31T19:42:12.510Z,23.87
2023-07-31T19:44:39.803Z,24.07
2023-07-31T19:47:07.103Z,23.73
2023-07-31T19:49:35.799Z,23.57
2023-07-31T19:52:02.807Z,23.56
2023-07-31T19:54:29.816Z,23.63
2023-07-31T19:56:58.632Z,23.51
2023-07-31T19:59:26.671Z,23.51
2023-07-31T20:01:53.735Z,23.51
2023-07-31T20:04:20.802Z,23.27
2023-07-31T20:06:47.919Z,23.24
2023-07-31T20:09:15.052Z,23.20
2023-07-31T20:11:42.065Z,22.98
2023-07-31T20:14:11.084Z,22.88
2023-07-31T20:16:42.160Z,22.82
2023-07-31T20:19:10.052Z,22.82
2023-07-31T20:21:40.785Z,22.77
2023-07-31T20:24:09.338Z,22.82
2023-07-31T20:26:37.559Z,22.71
2023-07-31T20:29:04.840Z,22.66
2023-07-31T20:31:31.895Z,22.67
2023-07-31T20:33:58.831Z,22.57
2023-07-31T20:36:26.006Z,22.48
2023-07-31T20:38:52.974Z,22.36
2023-07-31T20:41:20.468Z,22.39
2023-07-31T20:43:47.448Z,22.22
2023-07-31T20:46:14.641Z,22.24
2023-07-31T20:48:41.615Z,22.22
2023-07-31T20:51:09.046Z,22.10
2023-07-31T20:53:35.991Z,22.04
2023-07-31T20:56:03.741Z,22.06
2023-07-31T20:58:30.599Z,22.23
2023-07-31T21:00:57.628Z,22.07
2023-07-31T21:03:25.002Z,22.16
2023-07-31T21:05:54.016Z,21.85
2023-07-31T21:08:21.379Z,21.71
2023-07-31T21:10:51.459Z,21.69
2023-07-31T21:13:19.302Z,21.69
2023-07-31T21:15:46.422Z,21.72
2023-07-31T21:18:13.426Z,21.70
2023-07-31T21:20:40.494Z,21.75
2023-07-31T21:23:09.342Z,21.80
2023-07-31T21:25:39.093Z,21.66
2023-07-31T21:28:06.078Z,21.61
2023-07-31T21:30:34.397Z,21.63
2023-07-31T21:33:01.409Z,21.69
2023-07-31T21:35:28.579Z,21.73
2023-07-31T21:37:55.860Z,21.79
2023-07-31T21:40:23.631Z,21.83
2023-07-31T21:42:51.096Z,21.84
2023-07-31T21:45:18.918Z,21.87
2023-07-31T21:47:45.953Z,21.91
2023-07-31T21:50:13.140Z,21.93
2023-07-31T21:52:40.632Z,21.96
2023-07-31T21:55:08.291Z,21.99
2023-07-31T21:57:36.949Z,21.99
2023-07-31T22:00:06.212Z,22.07
2023-07-31T22:02:34.206Z,22.06
2023-07-31T22:05:01.375Z,21.79
2023-07-31T22:07:28.309Z,21.68
2023-07-31T22:09:55.231Z,21.62
2023-07-31T22:12:22.183Z,21.62
2023-07-31T22:14:49.216Z,21.60
2023-07-31T22:17:16.381Z,21.45
2023-07-31T22:19:43.292Z,21.37
2023-07-31T22:22:10.308Z,21.29
2023-07-31T22:24:38.772Z,21.23
2023-07-31T22:27:06.317Z,21.23
2023-07-31T22:29:33.307Z,21.24
2023-07-31T22:32:00.216Z,21.28
2023-07-31T22:34:27.182Z,21.24
2023-07-31T22:36:54.151Z,21.27
2023-07-31T22:39:21.072Z,21.41
2023-07-31T22:41:48.019Z,21.25
2023-07-31T22:44:14.996Z,21.15
2023-07-31T22:46:43.387Z,21.11
2023-07-31T22:49:10.710Z,21.11
2023-07-31T22:51:37.857Z,21.06
2023-07-31T22:54:04.842Z,21.08
2023-07-31T22:56:31.820Z,21.06
2023-07-31T22:58:59.414Z,21.00
2023-07-31T23:01:28.976Z,20.95
2023-07-31T23:03:56.924Z,20.94
2023-07-31T23:06:25.072Z,21.04
2023-07-31T23:08:52.176Z,21.11
2023-07-31T23:11:19.290Z,20.92
2023-07-31T23:13:46.507Z,20.91
2023-07-31T23:16:14.526Z,20.84
2023-07-31T23:18:42.236Z,20.86
2023-07-31T23:21:09.575Z,20.86
2023-07-31T23:23:36.630Z,20.84
2023-07-31T23:26:03.832Z,20.81
2023-07-31T23:28:30.817Z,20.77
2023-07-31T23:31:04.952Z,20.72
2023-07-31T23:33:32.719Z,20.71
2023-07-31T23:36:08.690Z,20.69
2023-07-31T23:38:35.616Z,20.67
2023-07-31T23:41:02.650Z,20.56
2023-07-31T23:43:29.589Z,20.56
2023-07-31T23:45:56.610Z,20.52
2023-07-31T23:48:23.635Z,20.56
2023-07-31T23:50:51.004Z,20.52
2023-07-31T23:53:18.415Z,20.56
2023-07-31T23:55:45.684Z,20.65
2023-07-31T23:58:14.968Z,20.65
